sensor_id;sensor_type;location;lat;lon;timestamp;P1;durP1;ratioP1;P2;durP2;ratioP2
47153;SDS011;32907;41.412;2.164;2022-11-22T00:02:17;3.55;;;1.17;;
47153;SDS011;32907;41.412;2.164;2022-11-22T00:04:45;2.70;;;1.50;;
47153;SDS011;32907;41.412;2.164;2022-11-22T00:07:13;3.72;;;1.30;;
47153;SDS011;32907;41.412;2.164;2022-11-22T00:09:41;2.65;;;1.30;;
47153;SDS011;32907;41.412;2.164;2022-11-22T00:12:09;2.25;;;1.20;;
47153;SDS011;32907;41.412;2.164;2022-11-22T00:14:37;3.42;;;1.08;;
47153;SDS011;32907;41.412;2.164;2022-11-22T00:17:05;3.30;;;1.13;;
47153;SDS011;32907;41.412;2.164;2022-11-22T00:19:33;2.38;;;1.30;;
47153;SDS011;32907;41.412;2.164;2022-11-22T00:22:01;2.47;;;1.08;;
47153;SDS011;32907;41.412;2.164;2022-11-22T00:24:30;4.35;;;1.20;;
47153;SDS011;32907;41.412;2.164;2022-11-22T00:26:58;3.33;;;1.02;;
47153;SDS011;32907;41.412;2.164;2022-11-22T00:29:26;2.60;;;1.20;;
47153;SDS011;32907;41.412;2.164;2022-11-22T00:31:54;2.28;;;1.10;;
47153;SDS011;32907;41.412;2.164;2022-11-22T00:34:22;4.32;;;1.35;;
47153;SDS011;32907;41.412;2.164;2022-11-22T00:36:50;2.10;;;0.82;;
47153;SDS011;32907;41.412;2.164;2022-11-22T00:39:18;1.92;;;1.00;;
47153;SDS011;32907;41.412;2.164;2022-11-22T00:41:46;2.15;;;1.00;;
47153;SDS011;32907;41.412;2.164;2022-11-22T00:44:14;2.53;;;1.30;;
47153;SDS011;32907;41.412;2.164;2022-11-22T00:46:42;3.65;;;1.17;;
47153;SDS011;32907;41.412;2.164;2022-11-22T00:49:10;1.73;;;0.98;;
47153;SDS011;32907;41.412;2.164;2022-11-22T00:51:38;2.13;;;1.15;;
47153;SDS011;32907;41.412;2.164;2022-11-22T00:54:06;3.95;;;1.00;;
47153;SDS011;32907;41.412;2.164;2022-11-22T00:56:34;3.47;;;1.02;;
47153;SDS011;32907;41.412;2.164;2022-11-22T00:59:02;1.92;;;1.00;;
47153;SDS011;32907;41.412;2.164;2022-11-22T01:01:30;2.55;;;0.90;;
47153;SDS011;32907;41.412;2.164;2022-11-22T01:03:58;3.28;;;1.08;;
47153;SDS011;32907;41.412;2.164;2022-11-22T01:06:26;2.60;;;1.40;;
47153;SDS011;32907;41.412;2.164;2022-11-22T01:08:54;4.47;;;0.88;;
47153;SDS011;32907;41.412;2.164;2022-11-22T01:11:22;2.47;;;0.80;;
47153;SDS011;32907;41.412;2.164;2022-11-22T01:13:49;2.42;;;0.82;;
47153;SDS011;32907;41.412;2.164;2022-11-22T01:16:17;3.25;;;1.10;;
47153;SDS011;32907;41.412;2.164;2022-11-22T01:18:45;3.58;;;1.40;;
47153;SDS011;32907;41.412;2.164;2022-11-22T01:21:13;6.50;;;1.27;;
47153;SDS011;32907;41.412;2.164;2022-11-22T01:23:40;2.30;;;1.27;;
47153;SDS011;32907;41.412;2.164;2022-11-22T01:26:08;1.95;;;0.77;;
47153;SDS011;32907;41.412;2.164;2022-11-22T01:28:36;2.20;;;1.25;;
47153;SDS011;32907;41.412;2.164;2022-11-22T01:31:04;3.15;;;1.10;;
47153;SDS011;32907;41.412;2.164;2022-11-22T01:33:32;2.97;;;1.00;;
47153;SDS011;32907;41.412;2.164;2022-11-22T01:36:00;1.17;;;0.63;;
47153;SDS011;32907;41.412;2.164;2022-11-22T01:38:29;2.50;;;0.80;;
47153;SDS011;32907;41.412;2.164;2022-11-22T01:40:56;2.50;;;0.80;;
47153;SDS011;32907;41.412;2.164;2022-11-22T01:43:25;2.13;;;0.70;;
47153;SDS011;32907;41.412;2.164;2022-11-22T01:45:59;3.38;;;0.70;;
47153;SDS011;32907;41.412;2.164;2022-11-22T01:53:55;2.47;;;0.75;;
47153;SDS011;32907;41.412;2.164;2022-11-22T01:56:26;2.03;;;0.65;;
47153;SDS011;32907;41.412;2.164;2022-11-22T01:58:57;3.28;;;1.00;;
47153;SDS011;32907;41.412;2.164;2022-11-22T02:01:29;2.20;;;0.82;;
47153;SDS011;32907;41.412;2.164;2022-11-22T02:03:58;4.50;;;1.15;;
47153;SDS011;32907;41.412;2.164;2022-11-22T02:06:37;1.90;;;1.00;;
47153;SDS011;32907;41.412;2.164;2022-11-22T02:09:12;2.53;;;1.17;;
47153;SDS011;32907;41.412;2.164;2022-11-22T02:11:43;2.90;;;1.10;;
47153;SDS011;32907;41.412;2.164;2022-11-22T02:14:15;2.13;;;1.10;;
47153;SDS011;32907;41.412;2.164;2022-11-22T02:16:45;2.72;;;1.20;;
47153;SDS011;32907;41.412;2.164;2022-11-22T02:19:17;1.98;;;1.10;;
47153;SDS011;32907;41.412;2.164;2022-11-22T02:21:54;2.72;;;1.00;;
47153;SDS011;32907;41.412;2.164;2022-11-22T02:24:30;2.78;;;0.82;;
47153;SDS011;32907;41.412;2.164;2022-11-22T02:27:05;3.33;;;1.13;;
47153;SDS011;32907;41.412;2.164;2022-11-22T02:29:33;3.22;;;0.70;;
47153;SDS011;32907;41.412;2.164;2022-11-22T02:32:01;3.03;;;0.70;;
47153;SDS011;32907;41.412;2.164;2022-11-22T02:34:39;2.55;;;1.00;;
47153;SDS011;32907;41.412;2.164;2022-11-22T02:37:08;2.78;;;0.70;;
47153;SDS011;32907;41.412;2.164;2022-11-22T02:39:39;3.40;;;1.05;;
47153;SDS011;32907;41.412;2.164;2022-11-22T02:42:10;2.17;;;0.80;;
47153;SDS011;32907;41.412;2.164;2022-11-22T02:44:38;3.38;;;0.93;;
47153;SDS011;32907;41.412;2.164;2022-11-22T02:47:08;3.88;;;1.10;;
47153;SDS011;32907;41.412;2.164;2022-11-22T02:49:35;2.45;;;1.08;;
47153;SDS011;32907;41.412;2.164;2022-11-22T02:52:03;2.85;;;0.80;;
47153;SDS011;32907;41.412;2.164;2022-11-22T02:54:31;3.00;;;0.73;;
47153;SDS011;32907;41.412;2.164;2022-11-22T02:57:00;1.60;;;0.52;;
47153;SDS011;32907;41.412;2.164;2022-11-22T02:59:29;3.78;;;0.80;;
47153;SDS011;32907;41.412;2.164;2022-11-22T03:01:57;4.20;;;0.80;;
47153;SDS011;32907;41.412;2.164;2022-11-22T03:04:29;2.20;;;0.60;;
47153;SDS011;32907;41.412;2.164;2022-11-22T03:06:57;1.63;;;0.65;;
47153;SDS011;32907;41.412;2.164;2022-11-22T03:09:26;2.38;;;0.70;;
47153;SDS011;32907;41.412;2.164;2022-11-22T03:11:55;4.30;;;0.63;;
47153;SDS011;32907;41.412;2.164;2022-11-22T03:14:24;2.65;;;0.57;;
47153;SDS011;32907;41.412;2.164;2022-11-22T03:16:51;3.20;;;0.90;;
47153;SDS011;32907;41.412;2.164;2022-11-22T03:19:19;2.38;;;0.68;;
47153;SDS011;32907;41.412;2.164;2022-11-22T03:21:47;3.90;;;1.00;;
47153;SDS011;32907;41.412;2.164;2022-11-22T03:24:16;5.90;;;3.53;;
47153;SDS011;32907;41.412;2.164;2022-11-22T03:26:47;9.65;;;5.25;;
47153;SDS011;32907;41.412;2.164;2022-11-22T03:29:16;5.20;;;3.33;;
47153;SDS011;32907;41.412;2.164;2022-11-22T03:31:44;6.03;;;2.30;;
47153;SDS011;32907;41.412;2.164;2022-11-22T03:34:12;3.55;;;1.60;;
47153;SDS011;32907;41.412;2.164;2022-11-22T03:36:40;2.03;;;0.90;;
47153;SDS011;32907;41.412;2.164;2022-11-22T03:39:08;2.25;;;0.70;;
47153;SDS011;32907;41.412;2.164;2022-11-22T03:41:35;2.30;;;0.73;;
47153;SDS011;32907;41.412;2.164;2022-11-22T03:44:03;1.77;;;0.57;;
47153;SDS011;32907;41.412;2.164;2022-11-22T03:46:31;2.33;;;0.57;;
47153;SDS011;32907;41.412;2.164;2022-11-22T03:48:59;1.67;;;0.47;;
47153;SDS011;32907;41.412;2.164;2022-11-22T03:51:27;1.30;;;0.43;;
47153;SDS011;32907;41.412;2.164;2022-11-22T03:53:54;1.30;;;0.57;;
47153;SDS011;32907;41.412;2.164;2022-11-22T03:56:22;1.98;;;0.60;;
47153;SDS011;32907;41.412;2.164;2022-11-22T03:58:50;1.50;;;0.60;;
47153;SDS011;32907;41.412;2.164;2022-11-22T04:01:18;2.15;;;0.55;;
47153;SDS011;32907;41.412;2.164;2022-11-22T04:03:45;1.30;;;0.45;;
47153;SDS011;32907;41.412;2.164;2022-11-22T04:06:13;2.03;;;0.40;;
47153;SDS011;32907;41.412;2.164;2022-11-22T04:08:41;0.85;;;0.40;;
47153;SDS011;32907;41.412;2.164;2022-11-22T04:11:09;2.78;;;0.40;;
47153;SDS011;32907;41.412;2.164;2022-11-22T04:13:38;1.13;;;0.32;;
47153;SDS011;32907;41.412;2.164;2022-11-22T04:16:25;1.83;;;0.52;;
47153;SDS011;32907;41.412;2.164;2022-11-22T04:18:52;1.52;;;0.50;;
47153;SDS011;32907;41.412;2.164;2022-11-22T04:21:20;1.85;;;0.70;;
47153;SDS011;32907;41.412;2.164;2022-11-22T04:24:01;1.63;;;0.63;;
47153;SDS011;32907;41.412;2.164;2022-11-22T04:26:49;1.73;;;0.40;;
47153;SDS011;32907;41.412;2.164;2022-11-22T04:29:17;2.45;;;0.75;;
47153;SDS011;32907;41.412;2.164;2022-11-22T04:31:47;3.22;;;0.98;;
47153;SDS011;32907;41.412;2.164;2022-11-22T04:34:34;1.70;;;0.63;;
47153;SDS011;32907;41.412;2.164;2022-11-22T04:37:02;4.32;;;0.52;;
47153;SDS011;32907;41.412;2.164;2022-11-22T04:39:31;2.67;;;0.85;;
47153;SDS011;32907;41.412;2.164;2022-11-22T04:41:59;1.95;;;0.32;;
47153;SDS011;32907;41.412;2.164;2022-11-22T04:44:45;4.07;;;0.63;;
47153;SDS011;32907;41.412;2.164;2022-11-22T04:47:14;2.13;;;0.47;;
47153;SDS011;32907;41.412;2.164;2022-11-22T04:50:05;2.38;;;0.45;;
47153;SDS011;32907;41.412;2.164;2022-11-22T04:52:55;2.60;;;0.47;;
47153;SDS011;32907;41.412;2.164;2022-11-22T04:55:23;4.28;;;0.40;;
47153;SDS011;32907;41.412;2.164;2022-11-22T04:57:51;1.40;;;0.50;;
47153;SDS011;32907;41.412;2.164;2022-11-22T05:00:29;1.50;;;0.47;;
47153;SDS011;32907;41.412;2.164;2022-11-22T05:02:57;1.92;;;0.45;;
47153;SDS011;32907;41.412;2.164;2022-11-22T05:05:25;2.55;;;0.50;;
47153;SDS011;32907;41.412;2.164;2022-11-22T05:07:54;2.72;;;0.50;;
47153;SDS011;32907;41.412;2.164;2022-11-22T05:10:24;2.70;;;0.50;;
47153;SDS011;32907;41.412;2.164;2022-11-22T05:12:53;1.95;;;0.40;;
47153;SDS011;32907;41.412;2.164;2022-11-22T05:15:22;1.50;;;0.50;;
47153;SDS011;32907;41.412;2.164;2022-11-22T05:17:50;3.30;;;0.40;;
47153;SDS011;32907;41.412;2.164;2022-11-22T05:20:18;1.63;;;0.38;;
47153;SDS011;32907;41.412;2.164;2022-11-22T05:22:45;1.33;;;0.40;;
47153;SDS011;32907;41.412;2.164;2022-11-22T05:25:33;2.25;;;0.65;;
47153;SDS011;32907;41.412;2.164;2022-11-22T05:28:00;1.95;;;0.60;;
47153;SDS011;32907;41.412;2.164;2022-11-22T05:30:28;2.05;;;0.50;;
47153;SDS011;32907;41.412;2.164;2022-11-22T05:32:56;2.35;;;0.43;;
47153;SDS011;32907;41.412;2.164;2022-11-22T05:35:23;0.93;;;0.32;;
47153;SDS011;32907;41.412;2.164;2022-11-22T05:37:51;3.17;;;0.40;;
47153;SDS011;32907;41.412;2.164;2022-11-22T05:40:19;1.20;;;0.40;;
47153;SDS011;32907;41.412;2.164;2022-11-22T05:42:47;3.58;;;0.65;;
47153;SDS011;32907;41.412;2.164;2022-11-22T05:45:15;1.50;;;0.57;;
47153;SDS011;32907;41.412;2.164;2022-11-22T05:47:43;2.72;;;0.50;;
47153;SDS011;32907;41.412;2.164;2022-11-22T05:50:11;2.50;;;0.40;;
47153;SDS011;32907;41.412;2.164;2022-11-22T05:52:39;2.20;;;0.50;;
47153;SDS011;32907;41.412;2.164;2022-11-22T05:55:07;2.42;;;0.60;;
47153;SDS011;32907;41.412;2.164;2022-11-22T05:57:35;6.22;;;0.70;;
47153;SDS011;32907;41.412;2.164;2022-11-22T06:00:05;2.35;;;0.60;;
47153;SDS011;32907;41.412;2.164;2022-11-22T06:02:40;1.02;;;0.52;;
47153;SDS011;32907;41.412;2.164;2022-11-22T06:05:08;4.70;;;1.05;;
47153;SDS011;32907;41.412;2.164;2022-11-22T06:07:36;4.05;;;1.00;;
47153;SDS011;32907;41.412;2.164;2022-11-22T06:10:04;5.57;;;1.48;;
47153;SDS011;32907;41.412;2.164;2022-11-22T06:12:32;3.10;;;1.10;;
47153;SDS011;32907;41.412;2.164;2022-11-22T06:15:00;2.70;;;0.82;;
47153;SDS011;32907;41.412;2.164;2022-11-22T06:17:29;3.28;;;1.25;;
47153;SDS011;32907;41.412;2.164;2022-11-22T06:19:57;4.20;;;1.33;;
47153;SDS011;32907;41.412;2.164;2022-11-22T06:22:32;16.20;;;5.20;;
47153;SDS011;32907;41.412;2.164;2022-11-22T06:24:59;18.52;;;5.22;;
47153;SDS011;32907;41.412;2.164;2022-11-22T06:27:28;19.65;;;5.55;;
47153;SDS011;32907;41.412;2.164;2022-11-22T06:29:56;15.93;;;4.43;;
47153;SDS011;32907;41.412;2.164;2022-11-22T06:32:24;9.00;;;2.00;;
47153;SDS011;32907;41.412;2.164;2022-11-22T06:34:52;5.95;;;1.85;;
47153;SDS011;32907;41.412;2.164;2022-11-22T06:37:19;4.07;;;1.13;;
47153;SDS011;32907;41.412;2.164;2022-11-22T06:39:47;6.25;;;1.45;;
47153;SDS011;32907;41.412;2.164;2022-11-22T06:42:16;4.95;;;1.23;;
47153;SDS011;32907;41.412;2.164;2022-11-22T06:44:46;8.18;;;0.90;;
47153;SDS011;32907;41.412;2.164;2022-11-22T06:47:13;5.18;;;0.90;;
47153;SDS011;32907;41.412;2.164;2022-11-22T06:49:43;4.80;;;0.90;;
47153;SDS011;32907;41.412;2.164;2022-11-22T06:52:14;4.18;;;1.23;;
47153;SDS011;32907;41.412;2.164;2022-11-22T06:54:42;3.35;;;0.90;;
47153;SDS011;32907;41.412;2.164;2022-11-22T06:57:13;3.67;;;1.27;;
47153;SDS011;32907;41.412;2.164;2022-11-22T06:59:41;3.15;;;0.90;;
47153;SDS011;32907;41.412;2.164;2022-11-22T07:02:10;4.50;;;1.40;;
47153;SDS011;32907;41.412;2.164;2022-11-22T07:04:38;2.75;;;0.90;;
47153;SDS011;32907;41.412;2.164;2022-11-22T07:07:26;3.95;;;0.93;;
47153;SDS011;32907;41.412;2.164;2022-11-22T07:09:56;3.05;;;0.90;;
47153;SDS011;32907;41.412;2.164;2022-11-22T07:12:24;3.10;;;1.10;;
47153;SDS011;32907;41.412;2.164;2022-11-22T07:14:52;4.47;;;1.10;;
47153;SDS011;32907;41.412;2.164;2022-11-22T07:17:20;4.03;;;0.88;;
47153;SDS011;32907;41.412;2.164;2022-11-22T07:19:48;5.25;;;1.40;;
47153;SDS011;32907;41.412;2.164;2022-11-22T07:22:16;4.00;;;1.15;;
47153;SDS011;32907;41.412;2.164;2022-11-22T07:24:44;3.67;;;0.90;;
47153;SDS011;32907;41.412;2.164;2022-11-22T07:27:11;4.07;;;0.90;;
47153;SDS011;32907;41.412;2.164;2022-11-22T07:29:39;2.85;;;0.90;;
47153;SDS011;32907;41.412;2.164;2022-11-22T07:32:07;2.65;;;0.77;;
47153;SDS011;32907;41.412;2.164;2022-11-22T07:34:35;5.97;;;1.00;;
47153;SDS011;32907;41.412;2.164;2022-11-22T07:37:02;4.32;;;1.30;;
47153;SDS011;32907;41.412;2.164;2022-11-22T07:39:35;6.20;;;1.63;;
47153;SDS011;32907;41.412;2.164;2022-11-22T07:42:03;3.05;;;1.20;;
47153;SDS011;32907;41.412;2.164;2022-11-22T07:44:30;4.15;;;1.30;;
47153;SDS011;32907;41.412;2.164;2022-11-22T07:46:58;6.40;;;1.55;;
47153;SDS011;32907;41.412;2.164;2022-11-22T07:49:26;3.10;;;1.50;;
47153;SDS011;32907;41.412;2.164;2022-11-22T07:51:54;4.95;;;1.75;;
47153;SDS011;32907;41.412;2.164;2022-11-22T07:54:22;5.10;;;2.03;;
47153;SDS011;32907;41.412;2.164;2022-11-22T07:56:50;7.40;;;2.17;;
47153;SDS011;32907;41.412;2.164;2022-11-22T07:59:18;5.80;;;1.63;;
47153;SDS011;32907;41.412;2.164;2022-11-22T08:01:45;3.85;;;1.40;;
47153;SDS011;32907;41.412;2.164;2022-11-22T08:04:13;6.15;;;1.95;;
47153;SDS011;32907;41.412;2.164;2022-11-22T08:06:41;7.05;;;1.40;;
47153;SDS011;32907;41.412;2.164;2022-11-22T08:09:09;6.35;;;1.58;;
47153;SDS011;32907;41.412;2.164;2022-11-22T08:11:38;30.60;;;3.97;;
47153;SDS011;32907;41.412;2.164;2022-11-22T08:14:05;31.98;;;5.20;;
47153;SDS011;32907;41.412;2.164;2022-11-22T08:16:33;26.42;;;4.47;;
47153;SDS011;32907;41.412;2.164;2022-11-22T08:19:01;62.17;;;9.20;;
47153;SDS011;32907;41.412;2.164;2022-11-22T08:21:28;81.22;;;9.57;;
47153;SDS011;32907;41.412;2.164;2022-11-22T08:23:57;60.65;;;9.27;;
47153;SDS011;32907;41.412;2.164;2022-11-22T08:26:25;39.90;;;6.35;;
47153;SDS011;32907;41.412;2.164;2022-11-22T08:28:53;19.40;;;3.47;;
47153;SDS011;32907;41.412;2.164;2022-11-22T08:31:20;20.20;;;3.22;;
47153;SDS011;32907;41.412;2.164;2022-11-22T08:33:51;12.25;;;2.10;;
47153;SDS011;32907;41.412;2.164;2022-11-22T08:36:20;13.40;;;2.15;;
47153;SDS011;32907;41.412;2.164;2022-11-22T08:38:48;12.55;;;2.20;;
47153;SDS011;32907;41.412;2.164;2022-11-22T08:41:17;13.82;;;2.47;;
47153;SDS011;32907;41.412;2.164;2022-11-22T08:43:45;10.48;;;2.60;;
47153;SDS011;32907;41.412;2.164;2022-11-22T08:46:15;10.95;;;2.70;;
47153;SDS011;32907;41.412;2.164;2022-11-22T08:48:44;9.82;;;1.85;;
47153;SDS011;32907;41.412;2.164;2022-11-22T08:51:12;7.63;;;1.90;;
47153;SDS011;32907;41.412;2.164;2022-11-22T08:53:41;6.90;;;1.60;;
47153;SDS011;32907;41.412;2.164;2022-11-22T08:56:10;4.13;;;1.90;;
47153;SDS011;32907;41.412;2.164;2022-11-22T08:58:40;4.22;;;1.83;;
47153;SDS011;32907;41.412;2.164;2022-11-22T09:01:10;3.80;;;1.55;;
47153;SDS011;32907;41.412;2.164;2022-11-22T09:03:41;6.10;;;1.92;;
47153;SDS011;32907;41.412;2.164;2022-11-22T09:06:10;5.05;;;2.15;;
47153;SDS011;32907;41.412;2.164;2022-11-22T09:09:00;5.57;;;2.10;;
47153;SDS011;32907;41.412;2.164;2022-11-22T09:11:47;5.78;;;1.50;;
47153;SDS011;32907;41.412;2.164;2022-11-22T09:14:15;4.72;;;1.63;;
47153;SDS011;32907;41.412;2.164;2022-11-22T09:16:43;5.63;;;1.52;;
47153;SDS011;32907;41.412;2.164;2022-11-22T09:19:11;3.55;;;1.88;;
47153;SDS011;32907;41.412;2.164;2022-11-22T09:21:39;4.30;;;2.10;;
47153;SDS011;32907;41.412;2.164;2022-11-22T09:24:06;5.90;;;1.83;;
47153;SDS011;32907;41.412;2.164;2022-11-22T09:26:34;7.32;;;2.33;;
47153;SDS011;32907;41.412;2.164;2022-11-22T09:29:02;7.72;;;2.60;;
47153;SDS011;32907;41.412;2.164;2022-11-22T09:31:30;6.63;;;2.83;;
47153;SDS011;32907;41.412;2.164;2022-11-22T09:33:58;6.63;;;2.90;;
47153;SDS011;32907;41.412;2.164;2022-11-22T09:36:26;7.53;;;2.53;;
47153;SDS011;32907;41.412;2.164;2022-11-22T09:38:54;8.50;;;2.75;;
47153;SDS011;32907;41.412;2.164;2022-11-22T09:50:23;9.65;;;3.67;;
47153;SDS011;32907;41.412;2.164;2022-11-22T09:53:02;8.27;;;3.17;;
47153;SDS011;32907;41.412;2.164;2022-11-22T09:55:35;7.65;;;3.15;;
47153;SDS011;32907;41.412;2.164;2022-11-22T09:58:09;8.55;;;3.10;;
47153;SDS011;32907;41.412;2.164;2022-11-22T10:00:49;6.47;;;2.80;;
47153;SDS011;32907;41.412;2.164;2022-11-22T10:03:32;9.75;;;2.80;;
47153;SDS011;32907;41.412;2.164;2022-11-22T10:06:21;5.53;;;2.90;;
47153;SDS011;32907;41.412;2.164;2022-11-22T10:09:05;7.55;;;3.42;;
47153;SDS011;32907;41.412;2.164;2022-11-22T10:11:59;5.70;;;3.42;;
47153;SDS011;32907;41.412;2.164;2022-11-22T10:14:53;8.25;;;2.95;;
47153;SDS011;32907;41.412;2.164;2022-11-22T10:20:29;10.48;;;3.28;;
47153;SDS011;32907;41.412;2.164;2022-11-22T10:23:01;16.70;;;3.03;;
47153;SDS011;32907;41.412;2.164;2022-11-22T10:25:40;5.70;;;2.50;;
47153;SDS011;32907;41.412;2.164;2022-11-22T10:28:16;6.93;;;2.13;;
47153;SDS011;32907;41.412;2.164;2022-11-22T10:30:53;9.07;;;1.80;;
47153;SDS011;32907;41.412;2.164;2022-11-22T10:33:47;6.50;;;2.17;;
47153;SDS011;32907;41.412;2.164;2022-11-22T10:45:09;6.95;;;1.88;;
47153;SDS011;32907;41.412;2.164;2022-11-22T10:47:56;9.13;;;4.28;;
47153;SDS011;32907;41.412;2.164;2022-11-22T11:01:44;39.40;;;22.95;;
47153;SDS011;32907;41.412;2.164;2022-11-22T11:04:14;82.00;;;45.60;;
47153;SDS011;32907;41.412;2.164;2022-11-22T11:06:45;102.43;;;53.05;;
47153;SDS011;32907;41.412;2.164;2022-11-22T11:09:41;74.18;;;41.33;;
47153;SDS011;32907;41.412;2.164;2022-11-22T11:18:26;24.70;;;11.02;;
47153;SDS011;32907;41.412;2.164;2022-11-22T11:21:18;13.38;;;6.20;;
47153;SDS011;32907;41.412;2.164;2022-11-22T11:23:45;8.75;;;3.58;;
47153;SDS011;32907;41.412;2.164;2022-11-22T11:31:46;14.35;;;3.30;;
47153;SDS011;32907;41.412;2.164;2022-11-22T11:34:20;13.35;;;2.97;;
47153;SDS011;32907;41.412;2.164;2022-11-22T11:36:51;7.88;;;2.65;;
47153;SDS011;32907;41.412;2.164;2022-11-22T11:39:23;7.97;;;2.67;;
47153;SDS011;32907;41.412;2.164;2022-11-22T11:41:56;5.50;;;2.20;;
47153;SDS011;32907;41.412;2.164;2022-11-22T11:46:58;11.52;;;3.80;;
47153;SDS011;32907;41.412;2.164;2022-11-22T11:49:27;117.28;;;30.08;;
47153;SDS011;32907;41.412;2.164;2022-11-22T11:51:58;186.60;;;46.90;;
47153;SDS011;32907;41.412;2.164;2022-11-22T11:54:40;142.93;;;41.13;;
47153;SDS011;32907;41.412;2.164;2022-11-22T12:07:43;17.60;;;8.05;;
47153;SDS011;32907;41.412;2.164;2022-11-22T12:13:00;27.67;;;16.25;;
47153;SDS011;32907;41.412;2.164;2022-11-22T12:15:46;38.97;;;20.38;;
47153;SDS011;32907;41.412;2.164;2022-11-22T12:18:40;47.25;;;28.80;;
47153;SDS011;32907;41.412;2.164;2022-11-22T12:27:12;23.45;;;17.02;;
47153;SDS011;32907;41.412;2.164;2022-11-22T12:29:41;29.25;;;18.38;;
47153;SDS011;32907;41.412;2.164;2022-11-22T12:32:17;98.75;;;67.03;;
47153;SDS011;32907;41.412;2.164;2022-11-22T12:34:56;59.95;;;43.28;;
47153;SDS011;32907;41.412;2.164;2022-11-22T12:37:30;37.00;;;27.27;;
47153;SDS011;32907;41.412;2.164;2022-11-22T12:40:10;28.45;;;15.85;;
47153;SDS011;32907;41.412;2.164;2022-11-22T12:42:53;22.67;;;13.63;;
47153;SDS011;32907;41.412;2.164;2022-11-22T12:45:29;12.93;;;7.65;;
47153;SDS011;32907;41.412;2.164;2022-11-22T12:48:03;11.02;;;5.60;;
47153;SDS011;32907;41.412;2.164;2022-11-22T12:50:42;12.70;;;6.30;;
47153;SDS011;32907;41.412;2.164;2022-11-22T12:53:14;13.30;;;6.63;;
47153;SDS011;32907;41.412;2.164;2022-11-22T12:55:48;12.13;;;7.03;;
47153;SDS011;32907;41.412;2.164;2022-11-22T13:01:24;16.67;;;7.72;;
47153;SDS011;32907;41.412;2.164;2022-11-22T13:09:27;16.33;;;9.02;;
47153;SDS011;32907;41.412;2.164;2022-11-22T13:11:59;16.70;;;9.73;;
47153;SDS011;32907;41.412;2.164;2022-11-22T13:14:36;15.40;;;9.00;;
47153;SDS011;32907;41.412;2.164;2022-11-22T13:17:08;18.05;;;9.70;;
47153;SDS011;32907;41.412;2.164;2022-11-22T13:19:41;15.10;;;8.95;;
47153;SDS011;32907;41.412;2.164;2022-11-22T13:25:19;15.50;;;11.15;;
47153;SDS011;32907;41.412;2.164;2022-11-22T13:27:53;15.73;;;9.90;;
47153;SDS011;32907;41.412;2.164;2022-11-22T13:30:27;17.35;;;11.23;;
47153;SDS011;32907;41.412;2.164;2022-11-22T13:32:58;13.48;;;9.15;;
47153;SDS011;32907;41.412;2.164;2022-11-22T13:35:31;10.00;;;5.72;;
47153;SDS011;32907;41.412;2.164;2022-11-22T13:38:04;15.00;;;7.97;;
47153;SDS011;32907;41.412;2.164;2022-11-22T13:40:38;14.88;;;9.27;;
47153;SDS011;32907;41.412;2.164;2022-11-22T13:51:09;7.85;;;3.80;;
47153;SDS011;32907;41.412;2.164;2022-11-22T13:53:39;5.53;;;3.00;;
47153;SDS011;32907;41.412;2.164;2022-11-22T13:58:52;7.70;;;2.63;;
47153;SDS011;32907;41.412;2.164;2022-11-22T14:06:52;4.88;;;3.10;;
47153;SDS011;32907;41.412;2.164;2022-11-22T14:15:10;18.85;;;7.38;;
47153;SDS011;32907;41.412;2.164;2022-11-22T14:22:55;27.25;;;7.95;;
47153;SDS011;32907;41.412;2.164;2022-11-22T14:31:13;28.48;;;8.90;;
47153;SDS011;32907;41.412;2.164;2022-11-22T14:36:44;22.65;;;9.68;;
47153;SDS011;32907;41.412;2.164;2022-11-22T14:42:57;13.35;;;4.82;;
47153;SDS011;32907;41.412;2.164;2022-11-22T14:45:03;10.73;;;4.60;;
47153;SDS011;32907;41.412;2.164;2022-11-22T14:47:42;10.70;;;3.28;;
47153;SDS011;32907;41.412;2.164;2022-11-22T14:50:24;11.15;;;3.85;;
47153;SDS011;32907;41.412;2.164;2022-11-22T14:52:55;6.78;;;3.35;;
47153;SDS011;32907;41.412;2.164;2022-11-22T14:55:28;5.68;;;2.78;;
47153;SDS011;32907;41.412;2.164;2022-11-22T14:58:03;11.88;;;4.97;;
47153;SDS011;32907;41.412;2.164;2022-11-22T15:06:09;11.18;;;3.20;;
47153;SDS011;32907;41.412;2.164;2022-11-22T15:18:06;12.80;;;3.53;;
47153;SDS011;32907;41.412;2.164;2022-11-22T15:21:15;20.02;;;4.57;;
47153;SDS011;32907;41.412;2.164;2022-11-22T15:30:29;19.02;;;6.07;;
47153;SDS011;32907;41.412;2.164;2022-11-22T15:33:24;16.00;;;5.78;;
47153;SDS011;32907;41.412;2.164;2022-11-22T15:39:23;12.57;;;4.20;;
47153;SDS011;32907;41.412;2.164;2022-11-22T15:42:15;5.70;;;2.55;;
47153;SDS011;32907;41.412;2.164;2022-11-22T15:45:04;9.98;;;3.22;;
47153;SDS011;32907;41.412;2.164;2022-11-22T15:47:56;9.13;;;2.50;;
47153;SDS011;32907;41.412;2.164;2022-11-22T15:57:19;12.93;;;4.13;;
47153;SDS011;32907;41.412;2.164;2022-11-22T15:59:58;18.75;;;4.25;;
47153;SDS011;32907;41.412;2.164;2022-11-22T16:02:27;22.73;;;5.30;;
47153;SDS011;32907;41.412;2.164;2022-11-22T16:07:46;14.18;;;4.25;;
47153;SDS011;32907;41.412;2.164;2022-11-22T16:12:52;17.10;;;3.33;;
47153;SDS011;32907;41.412;2.164;2022-11-22T16:15:27;16.00;;;5.70;;
47153;SDS011;32907;41.412;2.164;2022-11-22T16:18:07;19.40;;;6.72;;
47153;SDS011;32907;41.412;2.164;2022-11-22T16:20:40;16.67;;;4.43;;
47153;SDS011;32907;41.412;2.164;2022-11-22T16:25:37;13.93;;;2.80;;
47153;SDS011;32907;41.412;2.164;2022-11-22T16:30:59;11.10;;;2.90;;
47153;SDS011;32907;41.412;2.164;2022-11-22T16:33:30;10.32;;;2.20;;
47153;SDS011;32907;41.412;2.164;2022-11-22T16:35:59;11.65;;;2.88;;
47153;SDS011;32907;41.412;2.164;2022-11-22T16:38:28;7.47;;;2.45;;
47153;SDS011;32907;41.412;2.164;2022-11-22T16:40:56;9.40;;;2.10;;
47153;SDS011;32907;41.412;2.164;2022-11-22T16:43:25;10.70;;;2.90;;
47153;SDS011;32907;41.412;2.164;2022-11-22T16:46:00;13.30;;;2.50;;
47153;SDS011;32907;41.412;2.164;2022-11-22T16:48:28;19.67;;;3.17;;
47153;SDS011;32907;41.412;2.164;2022-11-22T16:51:03;18.58;;;4.13;;
47153;SDS011;32907;41.412;2.164;2022-11-22T16:53:45;27.90;;;4.55;;
47153;SDS011;32907;41.412;2.164;2022-11-22T16:56:18;19.48;;;4.85;;
47153;SDS011;32907;41.412;2.164;2022-11-22T16:58:51;17.85;;;4.40;;
47153;SDS011;32907;41.412;2.164;2022-11-22T17:01:21;14.18;;;3.63;;
47153;SDS011;32907;41.412;2.164;2022-11-22T17:03:53;9.35;;;3.22;;
47153;SDS011;32907;41.412;2.164;2022-11-22T17:06:24;6.80;;;2.42;;
47153;SDS011;32907;41.412;2.164;2022-11-22T17:08:54;10.45;;;4.15;;
47153;SDS011;32907;41.412;2.164;2022-11-22T17:11:24;6.97;;;3.75;;
47153;SDS011;32907;41.412;2.164;2022-11-22T17:13:53;11.07;;;4.00;;
47153;SDS011;32907;41.412;2.164;2022-11-22T17:16:23;7.50;;;3.22;;
47153;SDS011;32907;41.412;2.164;2022-11-22T17:18:50;9.65;;;4.53;;
47153;SDS011;32907;41.412;2.164;2022-11-22T17:21:27;12.20;;;6.03;;
47153;SDS011;32907;41.412;2.164;2022-11-22T17:24:04;6.57;;;4.63;;
47153;SDS011;32907;41.412;2.164;2022-11-22T17:26:39;5.25;;;3.10;;
47153;SDS011;32907;41.412;2.164;2022-11-22T17:29:08;6.38;;;2.65;;
47153;SDS011;32907;41.412;2.164;2022-11-22T17:34:23;4.28;;;1.77;;
47153;SDS011;32907;41.412;2.164;2022-11-22T17:36:51;7.03;;;1.75;;
47153;SDS011;32907;41.412;2.164;2022-11-22T17:39:19;5.15;;;1.35;;
47153;SDS011;32907;41.412;2.164;2022-11-22T17:41:47;9.25;;;2.35;;
47153;SDS011;32907;41.412;2.164;2022-11-22T17:44:16;4.63;;;2.10;;
47153;SDS011;32907;41.412;2.164;2022-11-22T17:46:44;3.85;;;1.65;;
47153;SDS011;32907;41.412;2.164;2022-11-22T17:49:13;5.22;;;3.65;;
47153;SDS011;32907;41.412;2.164;2022-11-22T17:51:42;8.32;;;5.30;;
47153;SDS011;32907;41.412;2.164;2022-11-22T17:54:10;7.13;;;4.72;;
47153;SDS011;32907;41.412;2.164;2022-11-22T17:56:37;6.68;;;3.80;;